createdAt,value
2022-12-26T00:00:30.157Z,98825.41
2022-12-26T00:02:56.879Z,98819.84
2022-12-26T00:05:23.518Z,98825.41
2022-12-26T00:07:49.944Z,98829.59
2022-12-26T00:10:16.449Z,98821.34
2022-12-26T00:12:43.001Z,98826.09
2022-12-26T00:15:09.552Z,98825.06
2022-12-26T00:17:36.043Z,98824.72
2022-12-26T00:20:03.385Z,98820.72
2022-12-26T00:22:29.938Z,98828.41
2022-12-26T00:24:56.397Z,98824.72
2022-12-26T00:27:22.961Z,98834.50
2022-12-26T00:29:49.453Z,98838.84
2022-12-26T00:32:15.956Z,98826.91
2022-12-26T00:34:42.452Z,98818.50
2022-12-26T00:37:08.992Z,98824.38
2022-12-26T00:39:35.494Z,98818.69
2022-12-26T00:42:01.951Z,98829.09
2022-12-26T00:44:28.463Z,98832.44
2022-12-26T00:46:55.123Z,98829.09
2022-12-26T00:49:21.771Z,98832.25
2022-12-26T00:51:48.270Z,98820.97
2022-12-26T00:54:14.852Z,98823.00
2022-12-26T00:56:41.325Z,98821.00
2022-12-26T00:59:07.831Z,98835.47
2022-12-26T01:01:34.407Z,98839.78
2022-12-26T01:04:01.453Z,98838.44
2022-12-26T01:06:27.955Z,98836.13
2022-12-26T01:08:54.578Z,98837.13
2022-12-26T01:11:40.363Z,98825.19
2022-12-26T01:14:10.911Z,98832.91
2022-12-26T01:16:38.870Z,98831.06
2022-12-26T01:19:06.436Z,98835.81
2022-12-26T01:21:33.405Z,98849.94
2022-12-26T01:24:00.573Z,98855.31
2022-12-26T01:26:27.159Z,98869.72
2022-12-26T01:28:54.255Z,98871.13
2022-12-26T01:31:22.352Z,98869.41
2022-12-26T01:33:50.337Z,98869.56
2022-12-26T01:36:17.589Z,98875.00
2022-12-26T01:38:44.785Z,98876.97
2022-12-26T01:41:17.279Z,98874.28
2022-12-26T01:44:00.355Z,98874.44
2022-12-26T01:46:38.784Z,98874.28
2022-12-26T01:49:32.713Z,98875.63
2022-12-26T01:52:03.925Z,98876.81
2022-12-26T01:54:39.423Z,98878.63
2022-12-26T01:57:16.012Z,98866.69
2022-12-26T01:59:43.141Z,98870.91
2022-12-26T02:02:10.234Z,98867.03
2022-12-26T02:04:59.303Z,98873.09
2022-12-26T02:07:26.610Z,98866.72
2022-12-26T02:09:54.837Z,98866.88
2022-12-26T02:12:34.442Z,98876.66
2022-12-26T02:15:08.257Z,98867.72
2022-12-26T02:17:34.893Z,98873.44
2022-12-26T02:20:18.906Z,98867.53
2022-12-26T02:23:18.323Z,98873.44
2022-12-26T02:26:09.346Z,98883.19
2022-12-26T02:29:01.628Z,98897.28
2022-12-26T02:31:52.946Z,98894.59
2022-12-26T02:34:43.083Z,98892.78
2022-12-26T02:37:41.661Z,98886.56
2022-12-26T02:40:17.621Z,98883.88
2022-12-26T02:42:56.275Z,98883.84
2022-12-26T02:46:14.206Z,98871.28
2022-12-26T02:49:31.230Z,98870.75
2022-12-26T02:52:39.711Z,98878.47
2022-12-26T02:55:33.107Z,98878.66
2022-12-26T02:58:31.355Z,98877.69
2022-12-26T03:01:24.243Z,98886.88
2022-12-26T03:04:13.732Z,98889.75
2022-12-26T03:07:04.132Z,98886.53
2022-12-26T03:09:51.859Z,98884.72
2022-12-26T03:12:36.889Z,98881.81
2022-12-26T03:15:16.681Z,98891.41
2022-12-26T03:18:06.692Z,98886.84
2022-12-26T03:20:35.962Z,98879.81
2022-12-26T03:23:13.362Z,98881.31
2022-12-26T03:26:10.363Z,98879.47
2022-12-26T03:28:37.323Z,98881.50
2022-12-26T03:31:09.330Z,98884.50
2022-12-26T03:33:58.111Z,98887.88
2022-12-26T03:37:03.847Z,98875.59
2022-12-26T03:40:00.575Z,98864.00
2022-12-26T03:43:13.942Z,98871.72
2022-12-26T03:46:26.956Z,98868.53
2022-12-26T03:49:31.604Z,98879.31
2022-12-26T03:52:25.076Z,98890.03
2022-12-26T03:55:30.038Z,98889.38
2022-12-26T03:58:40.459Z,98873.75
2022-12-26T04:01:31.101Z,98889.38
2022-12-26T04:04:18.284Z,98890.84
2022-12-26T04:07:17.781Z,98898.72
2022-12-26T04:10:10.668Z,98884.94
2022-12-26T04:12:58.500Z,98874.53
2022-12-26T04:15:52.376Z,98874.91
2022-12-26T04:18:56.941Z,98893.38
2022-12-26T04:22:11.902Z,98905.97
2022-12-26T04:25:09.554Z,98899.09
2022-12-26T04:27:54.839Z,98909.84
2022-12-26T04:30:40.247Z,98905.97
2022-12-26T04:33:34.470Z,98902.09
2022-12-26T04:36:28.724Z,98902.41
2022-12-26T04:39:19.437Z,98903.41
2022-12-26T04:42:06.880Z,98894.13
2022-12-26T04:44:35.698Z,98905.56
2022-12-26T04:47:02.233Z,98892.34
2022-12-26T04:49:47.497Z,98911.31
2022-12-26T04:52:15.237Z,98906.59
2022-12-26T04:54:42.349Z,98890.47
2022-12-26T04:57:09.014Z,98896.81
2022-12-26T04:59:35.586Z,98905.56
2022-12-26T05:02:22.115Z,98919.88
2022-12-26T05:05:06.956Z,98925.03
2022-12-26T05:07:56.039Z,98920.66
2022-12-26T05:10:25.113Z,98927.38
2022-12-26T05:12:53.563Z,98919.88
2022-12-26T05:15:20.574Z,98909.13
2022-12-26T05:18:05.658Z,98907.88
2022-12-26T05:20:47.323Z,98898.72
2022-12-26T05:23:42.481Z,98902.16
2022-12-26T05:26:34.454Z,98903.31
2022-12-26T05:29:03.800Z,98909.53
2022-12-26T05:31:35.560Z,98922.38
2022-12-26T05:34:12.222Z,98911.03
2022-12-26T05:36:50.404Z,98901.72
2022-12-26T05:39:16.934Z,98901.06
2022-12-26T05:41:43.589Z,98899.03
2022-12-26T05:44:11.046Z,98897.84
2022-12-26T05:46:38.684Z,98904.38
2022-12-26T05:49:06.520Z,98905.38
2022-12-26T05:51:33.012Z,98910.06
2022-12-26T05:53:59.983Z,98907.84
2022-12-26T05:56:26.797Z,98908.88
2022-12-26T05:58:58.809Z,98906.84
2022-12-26T06:01:27.812Z,98907.84
2022-12-26T06:03:57.173Z,98918.81
2022-12-26T06:06:24.681Z,98916.56
2022-12-26T06:08:52.976Z,98924.09
2022-12-26T06:11:20.530Z,98913.88
2022-12-26T06:13:46.990Z,98925.91
2022-12-26T06:16:15.480Z,98922.53
2022-12-26T06:18:42.039Z,98929.00
2022-12-26T06:21:12.094Z,98926.53
2022-12-26T06:23:39.893Z,98937.56
2022-12-26T06:26:08.952Z,98935.56
2022-12-26T06:28:36.698Z,98925.28
2022-12-26T06:31:12.106Z,98927.31
2022-12-26T06:33:38.718Z,98930.34
2022-12-26T06:36:10.660Z,98934.06
2022-12-26T06:38:37.361Z,98925.63
2022-12-26T06:41:12.793Z,98931.00
2022-12-26T06:43:39.367Z,98941.50
2022-12-26T06:46:07.622Z,98942.72
2022-12-26T06:48:39.366Z,98943.41
2022-12-26T06:51:12.193Z,98935.66
2022-12-26T06:53:38.989Z,98949.72
2022-12-26T06:56:28.501Z,98955.97
2022-12-26T06:58:56.457Z,98976.97
2022-12-26T07:01:24.063Z,98983.06
2022-12-26T07:03:53.337Z,99002.69
2022-12-26T07:06:31.511Z,99016.56
2022-12-26T07:09:04.173Z,99009.47
2022-12-26T07:11:33.351Z,99014.16
2022-12-26T07:14:00.263Z,99001.78
2022-12-26T07:16:27.098Z,98990.53
2022-12-26T07:18:57.770Z,99004.41
2022-12-26T07:21:25.898Z,99018.53
2022-12-26T07:23:53.470Z,99004.97
2022-12-26T07:26:19.912Z,99008.13
2022-12-26T07:28:46.554Z,99011.53
2022-12-26T07:31:17.901Z,99025.66
2022-12-26T07:33:50.883Z,99037.50
2022-12-26T07:36:18.175Z,99046.81
2022-12-26T07:38:45.202Z,99047.66
2022-12-26T07:41:30.539Z,99052.19
2022-12-26T07:43:56.974Z,99059.06
2022-12-26T07:46:23.448Z,99055.97
2022-12-26T07:48:49.932Z,99050.78
2022-12-26T07:51:16.550Z,99051.91
2022-12-26T07:53:43.106Z,99047.13
2022-12-26T07:56:09.486Z,99055.84
2022-12-26T07:58:35.920Z,99045.13
2022-12-26T08:01:03.519Z,99049.94
2022-12-26T08:03:30.235Z,99058.66
2022-12-26T08:05:57.023Z,99054.31
2022-12-26T08:08:23.495Z,99043.31
2022-12-26T08:10:58.657Z,99064.59
2022-12-26T08:13:24.952Z,99066.00
2022-12-26T08:15:51.404Z,99075.88
2022-12-26T08:18:17.817Z,99072.78
2022-12-26T08:20:44.207Z,99078.84
2022-12-26T08:23:10.596Z,99076.38
2022-12-26T08:25:37.892Z,99075.25
2022-12-26T08:28:04.482Z,99106.94
2022-12-26T08:30:30.932Z,99114.97
2022-12-26T08:33:00.056Z,99100.81
2022-12-26T08:35:26.446Z,99079.78
2022-12-26T08:37:52.796Z,99089.25
2022-12-26T08:40:41.384Z,99087.72
2022-12-26T08:43:36.898Z,99107.19
2022-12-26T08:46:08.883Z,99094.34
2022-12-26T08:48:36.378Z,99092.66
2022-12-26T08:51:15.063Z,99074.09
2022-12-26T08:53:42.392Z,99078.59
2022-12-26T08:56:12.405Z,99077.63
2022-12-26T08:58:38.892Z,99089.31
2022-12-26T09:01:17.463Z,99090.34
2022-12-26T09:03:44.890Z,99103.59
2022-12-26T09:06:13.110Z,99110.09
2022-12-26T09:08:41.257Z,99109.53
2022-12-26T09:11:12.300Z,99113.25
2022-12-26T09:13:39.353Z,99125.38
2022-12-26T09:16:07.263Z,99116.34
2022-12-26T09:18:33.691Z,99113.53
2022-12-26T09:21:01.562Z,99121.09
2022-12-26T09:23:29.055Z,99112.47
2022-12-26T09:25:55.660Z,99119.91
2022-12-26T09:28:22.667Z,99115.03
2022-12-26T09:30:49.055Z,99119.09
2022-12-26T09:33:15.466Z,99123.00
2022-12-26T09:35:42.382Z,99134.53
2022-12-26T09:38:08.766Z,99129.19
2022-12-26T09:40:59.872Z,99133.41
2022-12-26T09:43:46.670Z,99136.09
2022-12-26T09:46:57.323Z,99146.69
2022-12-26T09:49:36.691Z,99136.50
2022-12-26T09:52:12.764Z,99137.88
2022-12-26T09:55:14.837Z,99157.06
2022-12-26T09:57:48.849Z,99156.38
2022-12-26T10:00:21.463Z,99150.59
2022-12-26T10:02:52.366Z,99144.06
2022-12-26T10:05:21.796Z,99130.75
2022-12-26T10:08:19.386Z,99146.53
2022-12-26T10:10:56.314Z,99144.91
2022-12-26T10:13:35.094Z,99146.97
2022-12-26T10:16:41.241Z,99150.78
2022-12-26T10:19:32.753Z,99146.25
2022-12-26T10:22:36.591Z,99146.09
2022-12-26T10:25:13.051Z,99145.47
2022-12-26T10:27:42.589Z,99142.47
2022-12-26T10:30:18.739Z,99138.25
2022-12-26T10:32:53.885Z,99137.72
2022-12-26T10:35:25.873Z,99139.03
2022-12-26T10:37:54.047Z,99136.75
2022-12-26T10:40:40.440Z,99137.13
2022-12-26T10:43:30.149Z,99127.81
2022-12-26T10:46:17.997Z,99121.16
2022-12-26T10:48:44.766Z,99123.22
2022-12-26T10:51:12.970Z,99126.56
2022-12-26T10:53:47.331Z,99136.34
2022-12-26T10:56:18.085Z,99140.41
2022-12-26T10:58:45.775Z,99120.59
2022-12-26T11:01:30.591Z,99128.28
2022-12-26T11:04:00.052Z,99127.34
2022-12-26T11:06:41.099Z,99124.66
2022-12-26T11:09:34.721Z,99133.63
2022-12-26T11:12:02.346Z,99126.50
2022-12-26T11:14:34.721Z,99141.22
2022-12-26T11:17:11.717Z,99143.00
2022-12-26T11:19:45.175Z,99134.38
2022-12-26T11:22:24.736Z,99123.81
2022-12-26T11:25:21.632Z,99135.63
2022-12-26T11:27:52.825Z,99134.78
2022-12-26T11:30:22.954Z,99132.94
2022-12-26T11:33:13.444Z,99125.38
2022-12-26T11:35:57.602Z,99116.44
2022-12-26T11:38:44.203Z,99120.28
2022-12-26T11:41:39.555Z,99118.13
2022-12-26T11:44:12.343Z,99108.38
2022-12-26T11:46:40.350Z,99107.84
2022-12-26T11:49:17.249Z,99102.47
2022-12-26T11:51:47.573Z,99099.53
2022-12-26T11:54:33.627Z,99095.81
2022-12-26T11:57:20.340Z,99105.16
2022-12-26T11:59:48.227Z,99105.19
2022-12-26T12:02:22.346Z,99098.41
2022-12-26T12:04:50.777Z,99093.38
2022-12-26T12:07:41.904Z,99097.34
2022-12-26T12:10:33.142Z,99090.84
2022-12-26T12:13:13.938Z,99099.72
2022-12-26T12:16:12.421Z,99108.09
2022-12-26T12:19:21.051Z,99095.13
2022-12-26T12:22:05.973Z,99110.50
2022-12-26T12:24:41.534Z,99102.72
2022-12-26T12:27:17.063Z,99108.16
2022-12-26T12:30:02.415Z,99099.13
2022-12-26T12:32:56.785Z,99101.25
2022-12-26T12:35:38.704Z,99092.91
2022-12-26T12:38:17.367Z,99093.91
2022-12-26T12:41:04.031Z,99091.44
2022-12-26T12:43:42.004Z,99093.59
2022-12-26T12:46:14.301Z,99088.69
2022-12-26T12:48:43.719Z,99087.59
2022-12-26T12:51:40.814Z,99087.47
2022-12-26T12:54:38.658Z,99094.44
2022-12-26T12:57:17.137Z,99093.53
2022-12-26T13:00:01.822Z,99105.53
2022-12-26T13:02:35.318Z,99098.19
2022-12-26T13:05:16.879Z,99097.63
2022-12-26T13:07:49.712Z,99099.28
2022-12-26T13:10:24.982Z,99102.94
2022-12-26T13:12:53.399Z,99107.78
2022-12-26T13:15:28.302Z,99108.75
2022-12-26T13:18:11.784Z,99108.69
2022-12-26T13:20:52.555Z,99094.25
2022-12-26T13:24:02.582Z,99083.06
2022-12-26T13:26:42.590Z,99095.72
2022-12-26T13:29:33.780Z,99100.84
2022-12-26T13:32:01.372Z,99105.97
2022-12-26T13:34:28.344Z,99109.41
2022-12-26T13:36:59.678Z,99111.25
2022-12-26T13:39:26.026Z,99111.41
2022-12-26T13:42:20.204Z,99121.75
2022-12-26T13:44:53.059Z,99106.34
2022-12-26T13:47:39.582Z,99099.44
2022-12-26T13:50:46.066Z,99106.63
2022-12-26T13:53:39.553Z,99107.91
2022-12-26T13:56:18.073Z,99103.00
2022-12-26T13:59:16.159Z,99109.19
2022-12-26T14:01:55.818Z,99113.19
2022-12-26T14:04:40.518Z,99116.28
2022-12-26T14:07:28.796Z,99122.53
2022-12-26T14:10:13.390Z,99114.81
2022-12-26T14:13:18.043Z,99106.69
2022-12-26T14:15:57.459Z,99100.06
2022-12-26T14:18:29.813Z,99106.44
2022-12-26T14:21:14.894Z,99105.75
2022-12-26T14:23:53.413Z,99103.06
2022-12-26T14:26:29.040Z,99102.34
2022-12-26T14:29:06.424Z,99096.81
2022-12-26T14:31:47.603Z,99105.88
2022-12-26T14:34:24.905Z,99126.19
2022-12-26T14:37:31.441Z,99186.38
2022-12-26T14:40:15.801Z,99209.81
2022-12-26T14:43:13.806Z,99215.56
2022-12-26T14:45:42.499Z,99195.94
2022-12-26T14:48:17.984Z,99195.31
2022-12-26T14:50:56.574Z,99203.78
2022-12-26T14:53:28.966Z,99203.03
2022-12-26T14:56:10.128Z,99213.13
2022-12-26T14:58:50.468Z,99218.69
2022-12-26T15:01:17.785Z,99223.00
2022-12-26T15:03:53.192Z,99227.91
2022-12-26T15:06:19.575Z,99210.03
2022-12-26T15:09:04.379Z,99204.53
2022-12-26T15:12:08.713Z,99225.38
2022-12-26T15:14:57.431Z,99228.31
2022-12-26T15:17:50.100Z,99228.31
2022-12-26T15:20:40.622Z,99227.28
2022-12-26T15:23:29.954Z,99235.88
2022-12-26T15:26:04.308Z,99244.09
2022-12-26T15:29:01.565Z,99254.78
2022-12-26T15:31:37.691Z,99269.66
2022-12-26T15:34:32.469Z,99278.94
2022-12-26T15:37:38.782Z,99280.16
2022-12-26T15:40:20.124Z,99284.81
2022-12-26T15:42:59.738Z,99293.41
2022-12-26T15:45:35.477Z,99290.41
2022-12-26T15:48:16.845Z,99296.00
2022-12-26T15:51:35.415Z,99299.41
2022-12-26T15:54:26.818Z,99311.56
2022-12-26T15:57:20.841Z,99311.41
2022-12-26T16:00:10.907Z,99324.66
2022-12-26T16:02:46.886Z,99323.38
2022-12-26T16:05:34.845Z,99325.28
2022-12-26T16:08:17.671Z,99331.84
2022-12-26T16:10:44.269Z,99335.97
2022-12-26T16:13:13.389Z,99349.50
2022-12-26T16:15:52.125Z,99337.94
2022-12-26T16:18:26.468Z,99347.19
2022-12-26T16:21:15.172Z,99350.56
2022-12-26T16:23:44.291Z,99364.41
2022-12-26T16:26:26.042Z,99370.50
2022-12-26T16:28:54.165Z,99355.69
2022-12-26T16:31:25.239Z,99356.69
2022-12-26T16:33:54.953Z,99356.22
2022-12-26T16:36:23.778Z,99369.06
2022-12-26T16:38:51.382Z,99354.16
2022-12-26T16:41:26.169Z,99365.19
2022-12-26T16:43:54.519Z,99376.84
2022-12-26T16:46:28.775Z,99383.16
2022-12-26T16:49:00.663Z,99379.41
2022-12-26T16:51:42.335Z,99404.31
2022-12-26T16:54:27.311Z,99403.81
2022-12-26T16:57:03.008Z,99406.13
2022-12-26T16:59:39.970Z,99410.16
2022-12-26T17:02:15.953Z,99405.75
2022-12-26T17:04:53.140Z,99408.69
2022-12-26T17:07:25.851Z,99416.06
2022-12-26T17:09:57.346Z,99424.22
2022-12-26T17:12:29.551Z,99416.06
2022-12-26T17:14:58.616Z,99435.13
2022-12-26T17:17:25.142Z,99433.94
2022-12-26T17:19:54.669Z,99445.31
2022-12-26T17:22:35.003Z,99449.56
2022-12-26T17:25:33.902Z,99448.66
2022-12-26T17:28:09.597Z,99459.06
2022-12-26T17:30:48.445Z,99462.66
2022-12-26T17:33:26.647Z,99466.75
2022-12-26T17:38:45.513Z,99483.47
2022-12-26T17:41:15.842Z,99464.28
2022-12-26T17:43:43.257Z,99470.78
2022-12-26T17:46:16.034Z,99461.56
2022-12-26T17:48:43.151Z,99472.00
2022-12-26T17:51:14.623Z,99474.16
2022-12-26T17:53:42.951Z,99475.38
2022-12-26T17:56:22.640Z,99486.88
2022-12-26T17:58:49.747Z,99485.78
2022-12-26T18:01:21.074Z,99479.50
2022-12-26T18:03:48.868Z,99495.47
2022-12-26T18:06:19.740Z,99495.91
2022-12-26T18:08:46.278Z,99493.16
2022-12-26T18:11:14.401Z,99486.56
2022-12-26T18:13:41.471Z,99491.50
2022-12-26T18:16:08.222Z,99498.75
2022-12-26T18:18:37.565Z,99502.91
2022-12-26T18:21:07.302Z,99505.38
2022-12-26T18:23:35.926Z,99514.97
2022-12-26T18:26:06.676Z,99513.31
2022-12-26T18:28:34.346Z,99524.91
2022-12-26T18:31:00.820Z,99532.22
2022-12-26T18:33:27.726Z,99550.88
2022-12-26T18:35:55.033Z,99543.53
2022-12-26T18:38:22.039Z,99553.03
2022-12-26T18:40:50.887Z,99568.38
2022-12-26T18:43:18.007Z,99554.66
2022-12-26T18:45:44.740Z,99561.47
2022-12-26T18:48:16.014Z,99555.72
2022-12-26T18:50:43.735Z,99582.78
2022-12-26T18:53:10.504Z,99583.47
2022-12-26T18:55:37.402Z,99582.44
2022-12-26T18:58:04.085Z,99598.16
2022-12-26T19:00:31.019Z,99602.09
2022-12-26T19:02:57.400Z,99603.03
2022-12-26T19:05:31.019Z,99609.84
2022-12-26T19:07:58.828Z,99612.88
2022-12-26T19:10:28.844Z,99641.63
2022-12-26T19:13:02.876Z,99642.03
2022-12-26T19:15:32.154Z,99644.97
2022-12-26T19:17:58.583Z,99646.88
2022-12-26T19:20:26.451Z,99654.00
2022-12-26T19:22:54.232Z,99664.00
2022-12-26T19:25:23.000Z,99665.69
2022-12-26T19:27:51.424Z,99678.13
2022-12-26T19:30:22.455Z,99685.06
2022-12-26T19:32:50.247Z,99691.63
2022-12-26T19:35:17.352Z,99695.91
2022-12-26T19:37:44.443Z,99696.97
2022-12-26T19:40:12.693Z,99701.72
2022-12-26T19:42:39.102Z,99706.09
2022-12-26T19:45:07.528Z,99706.50
2022-12-26T19:47:34.665Z,99702.97
2022-12-26T19:50:01.670Z,99698.91
2022-12-26T19:52:30.477Z,99699.75
2022-12-26T19:54:56.896Z,99707.91
2022-12-26T19:57:23.524Z,99713.31
2022-12-26T19:59:50.722Z,99710.47
2022-12-26T20:02:17.447Z,99723.34
2022-12-26T20:04:44.214Z,99730.16
2022-12-26T20:07:10.715Z,99732.25
2022-12-26T20:09:37.217Z,99734.22
2022-12-26T20:12:03.913Z,99741.09
2022-12-26T20:14:32.445Z,99752.41
2022-12-26T20:17:05.648Z,99749.25
2022-12-26T20:19:33.019Z,99758.84
2022-12-26T20:21:59.430Z,99776.13
2022-12-26T20:24:25.845Z,99775.66
2022-12-26T20:26:52.371Z,99783.19
2022-12-26T20:29:18.792Z,99795.34
2022-12-26T20:31:45.441Z,99786.84
2022-12-26T20:34:12.766Z,99797.03
2022-12-26T20:36:40.195Z,99794.22
2022-12-26T20:39:11.003Z,99795.50
2022-12-26T20:41:38.005Z,99805.94
2022-12-26T20:44:04.706Z,99806.47
2022-12-26T20:46:32.922Z,99817.94
2022-12-26T20:49:01.836Z,99813.31
2022-12-26T20:51:36.479Z,99820.66
2022-12-26T20:54:05.520Z,99827.09
2022-12-26T20:56:31.917Z,99819.09
2022-12-26T20:58:59.626Z,99822.53
2022-12-26T21:01:27.542Z,99831.06
2022-12-26T21:03:55.263Z,99845.09
2022-12-26T21:06:24.534Z,99845.34
2022-12-26T21:08:53.165Z,99851.28
2022-12-26T21:11:23.853Z,99865.97
2022-12-26T21:13:54.193Z,99856.69
2022-12-26T21:16:27.110Z,99862.78
2022-12-26T21:18:54.137Z,99865.34
2022-12-26T21:21:25.826Z,99869.88
2022-12-26T21:24:01.272Z,99865.25
2022-12-26T21:26:28.638Z,99861.81
2022-12-26T21:29:00.204Z,99876.38
2022-12-26T21:31:27.844Z,99871.56
2022-12-26T21:33:59.728Z,99875.06
2022-12-26T21:36:27.281Z,99878.53
2022-12-26T21:38:54.669Z,99881.28
2022-12-26T21:41:21.624Z,99876.69
2022-12-26T21:43:49.023Z,99882.81
2022-12-26T21:46:18.572Z,99884.34
2022-12-26T21:48:47.556Z,99888.66
2022-12-26T21:51:15.429Z,99885.53
2022-12-26T21:53:42.921Z,99893.91
2022-12-26T21:56:14.165Z,99902.94
2022-12-26T21:58:59.497Z,99906.63
2022-12-26T22:01:27.071Z,99905.50
2022-12-26T22:04:13.518Z,99912.75
2022-12-26T22:06:41.182Z,99917.34
2022-12-26T22:09:09.042Z,99913.50
2022-12-26T22:11:53.923Z,99916.56
2022-12-26T22:14:20.711Z,99922.63
2022-12-26T22:16:47.182Z,99927.47
2022-12-26T22:19:13.548Z,99929.78
2022-12-26T22:21:39.992Z,99922.44
2022-12-26T22:24:06.727Z,99924.50
2022-12-26T22:26:33.137Z,99918.19
2022-12-26T22:28:59.588Z,99918.66
2022-12-26T22:31:32.214Z,99917.53
2022-12-26T22:34:13.598Z,99923.53
2022-12-26T22:36:41.052Z,99920.94
2022-12-26T22:39:08.131Z,99929.59
2022-12-26T22:41:34.971Z,99932.53
2022-12-26T22:44:01.581Z,99932.69
2022-12-26T22:46:28.037Z,99930.72
2022-12-26T22:48:54.429Z,99937.75
2022-12-26T22:51:23.051Z,99941.25
2022-12-26T22:53:49.941Z,99947.97
2022-12-26T22:56:16.347Z,99949.09
2022-12-26T22:58:43.054Z,99952.22
2022-12-26T23:01:18.025Z,99949.59
2022-12-26T23:03:44.760Z,99955.75
2022-12-26T23:06:22.277Z,99956.78
2022-12-26T23:08:50.167Z,99955.44
2022-12-26T23:11:17.085Z,99958.81
2022-12-26T23:13:44.302Z,99958.97
2022-12-26T23:16:17.175Z,99964.72
2022-12-26T23:19:11.082Z,99975.78
2022-12-26T23:21:39.790Z,99977.19
2022-12-26T23:24:07.275Z,99978.78
2022-12-26T23:26:33.951Z,99982.88
2022-12-26T23:29:19.172Z,99981.97
2022-12-26T23:31:45.625Z,99981.91
2022-12-26T23:34:11.997Z,99980.16
2022-12-26T23:36:38.357Z,99990.00
2022-12-26T23:39:04.760Z,99992.31
2022-12-26T23:41:31.191Z,99991.06
2022-12-26T23:43:57.589Z,99995.75
2022-12-26T23:46:24.251Z,99989.66
2022-12-26T23:48:50.605Z,99992.09
2022-12-26T23:51:16.995Z,99986.41
2022-12-26T23:53:43.877Z,99991.69
2022-12-26T23:56:10.693Z,99991.69
2022-12-26T23:58:39.858Z,99986.41
